Time;durP1;ratioP1;P1;durP2;ratioP2;P2;SDS_P1;SDS_P2;PMS_P1;PMS_P2;Temp;Humidity;BMP_temperature;BMP_pressure;BME280_temperature;BME280_humidity;BME280_pressure;Samples;Min_cycle;Max_cycle;Signal;HPM_P1;HPM_P2
2021/07/18 00:02:20;;;;;;;16.48;8.63;;;;;;;;;;6245907;22;20418;-65
2021/07/18 00:04:50;;;;;;;17.88;9.93;;;;;;;;;;6244804;23;20060;-66
2021/07/18 00:07:16;;;;;;;19.48;10.38;;;;;;;;;;6244693;23;20087;-67
2021/07/18 00:09:43;;;;;;;17.83;9.70;;;;;;;;;;6246925;23;20004;-64
2021/07/18 00:12:09;;;;;;;15.95;9.50;;;;;;;;;;6246389;23;20000;-65
2021/07/18 00:14:35;;;;;;;15.55;9.25;;;;;;;;;;6244547;23;20012;-66
2021/07/18 00:17:01;;;;;;;23.65;10.48;;;;;;;;;;6246373;23;20000;-66
2021/07/18 00:19:28;;;;;;;13.57;9.35;;;;;;;;;;6244710;23;20011;-67
2021/07/18 00:21:54;;;;;;;16.35;8.82;;;;;;;;;;6246289;23;20000;-67
2021/07/18 00:24:20;;;;;;;14.65;8.73;;;;;;;;;;6246301;23;20006;-67
2021/07/18 00:26:47;;;;;;;17.15;9.30;;;;;;;;;;6246240;23;20004;-66
2021/07/18 00:29:13;;;;;;;14.35;9.27;;;;;;;;;;6246242;23;20026;-66
2021/07/18 00:31:39;;;;;;;20.55;10.07;;;;;;;;;;6246241;23;20428;-67
2021/07/18 00:34:05;;;;;;;16.08;9.43;;;;;;;;;;6246010;23;20019;-67
2021/07/18 00:36:32;;;;;;;15.52;9.38;;;;;;;;;;6245915;23;20020;-67
2021/07/18 00:38:58;;;;;;;16.25;9.75;;;;;;;;;;6246170;23;20011;-66
2021/07/18 00:41:24;;;;;;;18.65;10.02;;;;;;;;;;6219353;23;20004;-67
2021/07/18 00:43:51;;;;;;;15.73;9.57;;;;;;;;;;6246472;23;20008;-67
2021/07/18 00:46:17;;;;;;;17.35;9.85;;;;;;;;;;6245981;23;20004;-67
2021/07/18 00:48:44;;;;;;;16.42;9.88;;;;;;;;;;6246183;23;20000;-68
2021/07/18 00:51:10;;;;;;;15.13;9.02;;;;;;;;;;6219288;23;20005;-68
2021/07/18 00:53:36;;;;;;;16.15;9.20;;;;;;;;;;6246290;23;20013;-68
2021/07/18 00:56:03;;;;;;;17.40;9.52;;;;;;;;;;6246006;23;20005;-68
2021/07/18 00:58:30;;;;;;;21.88;10.27;;;;;;;;;;6245934;23;20440;-67
2021/07/18 01:00:58;;;;;;;16.33;9.85;;;;;;;;;;6246405;23;20079;-66
2021/07/18 01:03:25;;;;;;;17.90;9.23;;;;;;;;;;6245927;23;20422;-66
2021/07/18 01:05:52;;;;;;;15.15;10.13;;;;;;;;;;6246714;23;20454;-67
2021/07/18 01:08:18;;;;;;;16.27;10.15;;;;;;;;;;6246036;23;20072;-66
2021/07/18 01:10:45;;;;;;;15.18;9.23;;;;;;;;;;6245970;23;20105;-69
2021/07/18 01:13:11;;;;;;;28.08;9.77;;;;;;;;;;6246621;23;20012;-67
2021/07/18 01:15:41;;;;;;;17.17;11.02;;;;;;;;;;6247885;23;20071;-66
2021/07/18 01:18:10;;;;;;;17.60;10.40;;;;;;;;;;6221018;23;20004;-67
2021/07/18 01:20:37;;;;;;;18.38;10.10;;;;;;;;;;6221006;23;20055;-66
2021/07/18 01:23:04;;;;;;;17.05;9.98;;;;;;;;;;6248461;23;20400;-67
2021/07/18 01:25:30;;;;;;;20.30;9.77;;;;;;;;;;6220974;23;20023;-66
2021/07/18 01:27:56;;;;;;;14.88;10.63;;;;;;;;;;6220820;23;20007;-66
2021/07/18 01:30:22;;;;;;;16.95;10.63;;;;;;;;;;6248231;23;20000;-65
2021/07/18 01:32:49;;;;;;;18.10;9.50;;;;;;;;;;6220842;23;20377;-66
2021/07/18 01:35:15;;;;;;;23.98;10.75;;;;;;;;;;6247835;23;20015;-67
2021/07/18 01:37:41;;;;;;;22.95;10.65;;;;;;;;;;6247724;23;20107;-66
2021/07/18 01:40:09;;;;;;;19.70;11.02;;;;;;;;;;6247573;23;20334;-66
2021/07/18 01:42:35;;;;;;;18.88;10.77;;;;;;;;;;6247757;23;20066;-66
2021/07/18 01:45:01;;;;;;;16.95;10.13;;;;;;;;;;6220844;23;20008;-66
2021/07/18 01:47:28;;;;;;;15.70;10.38;;;;;;;;;;6247534;23;20437;-66
2021/07/18 01:49:54;;;;;;;17.67;10.32;;;;;;;;;;6247598;23;20004;-66
2021/07/18 01:52:20;;;;;;;20.23;10.75;;;;;;;;;;6247507;23;20023;-67
2021/07/18 01:54:47;;;;;;;20.73;10.85;;;;;;;;;;6248049;23;20008;-67
2021/07/18 01:57:17;;;;;;;18.17;11.27;;;;;;;;;;6248160;23;20394;-66
2021/07/18 01:59:43;;;;;;;16.73;10.68;;;;;;;;;;6220619;23;20027;-65
2021/07/18 02:02:09;;;;;;;17.95;10.18;;;;;;;;;;6247536;23;20004;-65
2021/07/18 02:04:35;;;;;;;17.52;11.23;;;;;;;;;;6220664;23;20004;-66
2021/07/18 02:07:03;;;;;;;16.77;9.75;;;;;;;;;;6248131;23;20032;-67
2021/07/18 02:09:29;;;;;;;18.15;11.30;;;;;;;;;;6247450;23;20028;-66
2021/07/18 02:11:56;;;;;;;18.13;10.65;;;;;;;;;;6220901;23;20079;-67
2021/07/18 02:14:22;;;;;;;15.68;10.13;;;;;;;;;;6247157;23;20020;-67
2021/07/18 02:16:52;;;;;;;17.60;9.95;;;;;;;;;;6247215;23;20012;-67
2021/07/18 02:19:19;;;;;;;19.45;10.45;;;;;;;;;;6247367;23;20380;-67
2021/07/18 02:21:45;;;;;;;20.83;11.20;;;;;;;;;;6247580;23;20007;-67
2021/07/18 02:24:12;;;;;;;19.30;10.27;;;;;;;;;;6247556;23;20091;-67
2021/07/18 02:26:38;;;;;;;17.70;10.45;;;;;;;;;;6247513;23;20008;-67
2021/07/18 02:29:05;;;;;;;19.38;11.10;;;;;;;;;;6247498;23;20068;-65
2021/07/18 02:31:31;;;;;;;22.83;11.23;;;;;;;;;;6220387;23;20364;-67
2021/07/18 02:33:57;;;;;;;20.20;10.40;;;;;;;;;;6247057;23;20082;-66
2021/07/18 02:36:23;;;;;;;17.42;11.05;;;;;;;;;;6246996;23;20445;-67
2021/07/18 02:38:50;;;;;;;17.02;10.98;;;;;;;;;;6247128;23;20418;-67
2021/07/18 02:41:16;;;;;;;17.65;9.88;;;;;;;;;;6220331;23;20051;-67
2021/07/18 02:43:43;;;;;;;20.23;10.57;;;;;;;;;;6247407;23;20004;-67
2021/07/18 02:46:09;;;;;;;18.88;10.48;;;;;;;;;;6247022;23;20068;-67
2021/07/18 02:48:36;;;;;;;17.25;10.65;;;;;;;;;;6246615;23;20036;-68
2021/07/18 02:51:03;;;;;;;18.90;11.10;;;;;;;;;;6247370;23;20186;-66
2021/07/18 02:53:29;;;;;;;18.48;10.32;;;;;;;;;;6246825;23;20496;-67
2021/07/18 02:55:56;;;;;;;18.15;10.88;;;;;;;;;;6246994;23;20076;-68
2021/07/18 02:58:22;;;;;;;20.85;10.27;;;;;;;;;;6246809;23;20433;-68
2021/07/18 03:00:49;;;;;;;18.75;10.13;;;;;;;;;;6220143;23;20000;-67
2021/07/18 03:03:16;;;;;;;20.33;9.98;;;;;;;;;;6220083;23;20004;-67
2021/07/18 03:05:42;;;;;;;20.08;10.50;;;;;;;;;;6220012;23;20054;-68
2021/07/18 03:08:08;;;;;;;17.02;10.65;;;;;;;;;;6219968;23;20000;-68
2021/07/18 03:10:35;;;;;;;16.92;10.68;;;;;;;;;;6247405;23;20016;-68
2021/07/18 03:13:01;;;;;;;17.63;10.68;;;;;;;;;;6246677;23;20459;-66
2021/07/18 03:15:27;;;;;;;17.65;10.38;;;;;;;;;;6220220;23;20069;-67
2021/07/18 03:17:53;;;;;;;18.13;10.98;;;;;;;;;;6247379;23;20006;-67
2021/07/18 03:20:20;;;;;;;22.13;10.98;;;;;;;;;;6246632;23;20061;-67
2021/07/18 03:22:48;;;;;;;19.88;10.32;;;;;;;;;;6246868;23;20071;-67
2021/07/18 03:25:15;;;;;;;20.58;10.85;;;;;;;;;;6246537;23;20004;-66
2021/07/18 03:27:42;;;;;;;16.90;10.27;;;;;;;;;;6246595;23;20007;-67
2021/07/18 03:30:10;;;;;;;23.38;10.65;;;;;;;;;;6246604;23;20027;-67
2021/07/18 03:32:36;;;;;;;18.73;9.85;;;;;;;;;;6219649;23;20000;-69
2021/07/18 03:35:03;;;;;;;14.98;10.30;;;;;;;;;;6225826;23;20047;-67
2021/07/18 03:37:30;;;;;;;16.70;9.13;;;;;;;;;;6246477;23;19996;-67
2021/07/18 03:39:56;;;;;;;14.45;9.35;;;;;;;;;;6246865;23;20389;-66
2021/07/18 03:42:22;;;;;;;16.50;9.10;;;;;;;;;;6244870;23;20381;-65
2021/07/18 03:44:48;;;;;;;20.83;10.02;;;;;;;;;;6244880;23;20011;-66
2021/07/18 03:47:15;;;;;;;15.75;9.65;;;;;;;;;;6244757;23;20004;-66
2021/07/18 03:49:41;;;;;;;19.02;10.02;;;;;;;;;;6244937;23;20004;-66
2021/07/18 03:52:07;;;;;;;16.85;9.95;;;;;;;;;;6244895;23;20008;-67
2021/07/18 03:54:34;;;;;;;18.23;10.18;;;;;;;;;;6244791;23;20019;-66
2021/07/18 03:57:00;;;;;;;18.45;9.82;;;;;;;;;;6246673;23;19996;-66
2021/07/18 03:59:27;;;;;;;16.45;8.57;;;;;;;;;;6244467;23;20028;-64
2021/07/18 04:01:53;;;;;;;15.00;9.30;;;;;;;;;;6246312;23;20007;-64
2021/07/18 04:04:19;;;;;;;16.42;9.45;;;;;;;;;;6244780;23;20066;-67
2021/07/18 04:06:45;;;;;;;17.85;9.02;;;;;;;;;;6244832;23;20031;-68
2021/07/18 04:09:12;;;;;;;15.18;8.40;;;;;;;;;;6244819;23;20082;-67
2021/07/18 04:11:38;;;;;;;16.27;8.63;;;;;;;;;;6244729;23;20103;-68
2021/07/18 04:14:04;;;;;;;14.95;8.07;;;;;;;;;;6244646;23;20012;-67
2021/07/18 04:16:30;;;;;;;16.17;7.78;;;;;;;;;;6244746;23;20000;-67
2021/07/18 04:18:56;;;;;;;13.80;7.32;;;;;;;;;;6244696;23;20012;-69
2021/07/18 04:21:22;;;;;;;12.82;7.45;;;;;;;;;;6247130;23;20008;-67
2021/07/18 04:23:49;;;;;;;11.25;7.22;;;;;;;;;;6246876;23;20004;-67
2021/07/18 04:26:15;;;;;;;10.38;6.38;;;;;;;;;;6244737;23;20004;-68
2021/07/18 04:28:41;;;;;;;12.15;7.72;;;;;;;;;;6244687;23;20011;-67
2021/07/18 04:31:08;;;;;;;12.30;6.60;;;;;;;;;;6244692;23;20000;-65
2021/07/18 04:33:35;;;;;;;8.73;6.20;;;;;;;;;;6244556;23;20503;-66
2021/07/18 04:36:01;;;;;;;12.68;6.93;;;;;;;;;;6245965;23;20058;-67
2021/07/18 04:38:27;;;;;;;9.20;6.15;;;;;;;;;;6246494;23;20004;-68
2021/07/18 04:40:53;;;;;;;14.02;6.43;;;;;;;;;;6246281;23;20028;-66
2021/07/18 04:43:19;;;;;;;12.00;6.22;;;;;;;;;;6219341;23;20008;-67
2021/07/18 04:45:46;;;;;;;8.55;5.85;;;;;;;;;;6219337;23;20041;-68
2021/07/18 04:48:12;;;;;;;13.27;6.30;;;;;;;;;;6219727;23;20083;-65
2021/07/18 04:50:38;;;;;;;10.57;6.13;;;;;;;;;;6247784;23;20396;-67
2021/07/18 04:53:04;;;;;;;9.82;6.05;;;;;;;;;;6221221;23;20012;-68
2021/07/18 04:55:30;;;;;;;12.38;6.82;;;;;;;;;;6248038;23;20307;-65
2021/07/18 04:57:56;;;;;;;11.55;5.80;;;;;;;;;;6220442;23;20008;-66
2021/07/18 05:00:23;;;;;;;11.77;5.90;;;;;;;;;;6221065;23;20460;-67
2021/07/18 05:02:50;;;;;;;9.40;5.72;;;;;;;;;;6221148;23;20303;-67
2021/07/18 05:05:17;;;;;;;11.40;5.85;;;;;;;;;;6247252;23;20007;-65
2021/07/18 05:07:54;;;;;;;11.25;5.65;;;;;;;;;;6247619;23;20011;-66
2021/07/18 05:10:21;;;;;;;8.30;5.82;;;;;;;;;;6221064;23;20016;-67
2021/07/18 05:12:48;;;;;;;7.47;5.53;;;;;;;;;;6220907;23;20004;-67
2021/07/18 05:15:14;;;;;;;8.30;5.57;;;;;;;;;;6221036;23;20334;-67
2021/07/18 05:17:40;;;;;;;11.05;5.97;;;;;;;;;;6220984;23;20011;-68
2021/07/18 05:20:07;;;;;;;10.20;5.65;;;;;;;;;;6220998;23;20003;-68
2021/07/18 05:22:33;;;;;;;10.52;6.05;;;;;;;;;;6220701;23;20307;-67
2021/07/18 05:25:00;;;;;;;9.85;6.18;;;;;;;;;;6247699;23;20000;-67
2021/07/18 05:27:26;;;;;;;13.73;6.65;;;;;;;;;;6220645;23;20004;-65
2021/07/18 05:29:52;;;;;;;10.32;6.22;;;;;;;;;;6220746;23;20485;-66
2021/07/18 05:32:19;;;;;;;11.57;6.50;;;;;;;;;;6247699;23;20003;-68
2021/07/18 05:34:45;;;;;;;9.32;5.70;;;;;;;;;;6247575;23;20051;-69
2021/07/18 05:37:12;;;;;;;10.95;6.13;;;;;;;;;;6247462;23;20000;-70
2021/07/18 05:39:38;;;;;;;8.82;5.28;;;;;;;;;;6220688;23;20012;-72
2021/07/18 05:42:04;;;;;;;7.78;5.72;;;;;;;;;;6220757;23;20054;-65
2021/07/18 05:44:30;;;;;;;10.45;5.03;;;;;;;;;;6219404;23;20369;-65
2021/07/18 05:46:56;;;;;;;10.52;5.65;;;;;;;;;;6246143;23;20364;-64
2021/07/18 05:49:22;;;;;;;15.30;6.05;;;;;;;;;;6246418;23;20013;-63
2021/07/18 05:51:48;;;;;;;8.65;5.80;;;;;;;;;;6246219;23;20433;-63
2021/07/18 05:54:15;;;;;;;10.18;5.55;;;;;;;;;;6246150;23;20023;-67
2021/07/18 05:56:41;;;;;;;8.77;5.40;;;;;;;;;;6246138;23;20015;-64
2021/07/18 05:59:07;;;;;;;11.82;5.40;;;;;;;;;;6245558;23;20004;-68
2021/07/18 06:01:33;;;;;;;9.23;4.88;;;;;;;;;;6246164;23;20012;-64
2021/07/18 06:03:59;;;;;;;11.85;6.30;;;;;;;;;;6246072;23;20015;-63
2021/07/18 06:06:25;;;;;;;12.32;5.95;;;;;;;;;;6245934;23;20026;-63
2021/07/18 06:08:51;;;;;;;10.57;6.05;;;;;;;;;;6246397;23;20008;-62
2021/07/18 06:11:18;;;;;;;8.73;5.90;;;;;;;;;;6246731;23;20058;-63
2021/07/18 06:13:44;;;;;;;11.20;6.45;;;;;;;;;;6245822;23;20008;-63
2021/07/18 06:16:10;;;;;;;9.15;5.65;;;;;;;;;;6246456;23;20008;-70
2021/07/18 06:18:36;;;;;;;9.85;6.05;;;;;;;;;;6219383;23;20369;-63
2021/07/18 06:21:03;;;;;;;9.07;6.25;;;;;;;;;;6219467;23;20071;-62
2021/07/18 06:23:29;;;;;;;7.95;5.70;;;;;;;;;;6245789;23;20015;-64
2021/07/18 06:25:55;;;;;;;9.70;5.72;;;;;;;;;;6245745;23;20004;-63
2021/07/18 06:28:21;;;;;;;10.65;6.18;;;;;;;;;;6245883;23;20000;-63
2021/07/18 06:30:47;;;;;;;11.23;6.38;;;;;;;;;;6245479;23;20417;-69
2021/07/18 06:33:13;;;;;;;9.93;6.28;;;;;;;;;;6246605;23;20058;-64
2021/07/18 06:35:39;;;;;;;10.10;6.40;;;;;;;;;;6233816;23;20020;-64
2021/07/18 06:38:05;;;;;;;9.15;5.95;;;;;;;;;;6245340;23;20016;-64
2021/07/18 06:40:32;;;;;;;13.35;6.43;;;;;;;;;;6245356;23;20000;-71
2021/07/18 06:42:58;;;;;;;9.82;6.20;;;;;;;;;;6245335;23;20083;-65
2021/07/18 06:45:25;;;;;;;10.15;6.32;;;;;;;;;;6245712;23;20078;-66
2021/07/18 06:47:51;;;;;;;10.82;5.80;;;;;;;;;;6246727;23;20054;-64
2021/07/18 06:50:20;;;;;;;8.52;5.55;;;;;;;;;;6245205;23;20000;-66
2021/07/18 06:52:46;;;;;;;7.80;5.50;;;;;;;;;;6245408;23;20007;-66
2021/07/18 06:55:12;;;;;;;10.60;5.32;;;;;;;;;;6245475;23;20038;-66
2021/07/18 06:57:38;;;;;;;12.80;5.60;;;;;;;;;;6245192;23;20011;-66
2021/07/18 07:00:08;;;;;;;8.93;5.50;;;;;;;;;;6245380;23;20032;-67
2021/07/18 07:02:35;;;;;;;9.00;5.32;;;;;;;;;;6245265;23;20000;-70
2021/07/18 07:05:01;;;;;;;9.45;5.03;;;;;;;;;;6246830;23;20039;-65
2021/07/18 07:07:27;;;;;;;10.25;5.28;;;;;;;;;;6245318;23;20046;-68
2021/07/18 07:09:54;;;;;;;8.32;5.15;;;;;;;;;;6247561;23;20000;-67
2021/07/18 07:12:20;;;;;;;8.07;5.10;;;;;;;;;;6245051;23;20150;-66
2021/07/18 07:14:46;;;;;;;8.10;5.47;;;;;;;;;;6245147;23;20023;-67
2021/07/18 07:17:12;;;;;;;12.63;5.38;;;;;;;;;;6246831;23;20063;-68
2021/07/18 07:19:38;;;;;;;9.27;5.30;;;;;;;;;;6246776;23;20054;-67
2021/07/18 07:22:05;;;;;;;12.40;6.07;;;;;;;;;;6247411;23;19996;-67
2021/07/18 07:24:31;;;;;;;9.25;5.40;;;;;;;;;;6245208;23;20087;-70
2021/07/18 07:26:57;;;;;;;12.35;5.18;;;;;;;;;;6247388;23;20000;-70
2021/07/18 07:29:24;;;;;;;9.45;5.95;;;;;;;;;;6245149;23;20053;-70
2021/07/18 07:31:50;;;;;;;11.23;6.15;;;;;;;;;;6247331;23;20467;-70
2021/07/18 07:34:16;;;;;;;9.48;6.22;;;;;;;;;;6246634;23;20022;-69
2021/07/18 07:36:43;;;;;;;8.48;6.05;;;;;;;;;;6219883;23;20019;-71
2021/07/18 07:39:09;;;;;;;9.98;6.53;;;;;;;;;;6219764;23;20074;-69
2021/07/18 07:41:35;;;;;;;14.18;6.28;;;;;;;;;;6219635;23;20004;-70
2021/07/18 07:44:01;;;;;;;11.40;6.50;;;;;;;;;;6246526;23;20034;-69
2021/07/18 07:46:28;;;;;;;9.35;6.60;;;;;;;;;;6219796;23;20334;-69
2021/07/18 07:48:54;;;;;;;11.30;6.18;;;;;;;;;;6219470;23;20036;-68
2021/07/18 07:51:20;;;;;;;9.40;6.10;;;;;;;;;;6219340;23;20004;-68
2021/07/18 07:53:47;;;;;;;9.13;6.03;;;;;;;;;;6246217;23;20047;-68
2021/07/18 07:56:13;;;;;;;11.60;6.80;;;;;;;;;;6219354;23;20000;-69
2021/07/18 07:58:39;;;;;;;11.85;6.55;;;;;;;;;;6219424;23;20519;-69
2021/07/18 08:01:05;;;;;;;10.50;6.20;;;;;;;;;;6245979;23;20478;-67
2021/07/18 08:03:32;;;;;;;11.07;6.07;;;;;;;;;;6219469;23;20028;-68
2021/07/18 08:05:58;;;;;;;9.85;6.22;;;;;;;;;;6245790;23;20050;-67
2021/07/18 08:08:24;;;;;;;8.93;5.50;;;;;;;;;;6244796;23;20402;-68
2021/07/18 08:10:50;;;;;;;8.45;5.97;;;;;;;;;;6245136;23;20014;-67
2021/07/18 08:13:16;;;;;;;7.72;5.70;;;;;;;;;;6245087;23;20004;-66
2021/07/18 08:15:42;;;;;;;8.68;5.85;;;;;;;;;;6244940;23;20460;-66
2021/07/18 08:18:08;;;;;;;11.23;6.38;;;;;;;;;;6244858;23;20418;-66
2021/07/18 08:20:34;;;;;;;10.68;6.38;;;;;;;;;;6244795;23;20008;-66
2021/07/18 08:23:01;;;;;;;9.48;6.07;;;;;;;;;;6245724;23;20024;-68
2021/07/18 08:25:28;;;;;;;8.00;5.90;;;;;;;;;;6246264;23;20027;-69
2021/07/18 08:27:55;;;;;;;10.23;6.43;;;;;;;;;;6219277;23;20007;-68
2021/07/18 08:30:21;;;;;;;11.00;6.10;;;;;;;;;;6219325;23;20396;-66
2021/07/18 08:32:48;;;;;;;9.98;6.60;;;;;;;;;;6219310;23;20031;-67
2021/07/18 08:35:14;;;;;;;11.55;6.00;;;;;;;;;;6245808;23;20017;-68
2021/07/18 08:37:41;;;;;;;9.55;6.20;;;;;;;;;;6246215;23;20049;-66
2021/07/18 08:40:08;;;;;;;12.05;6.10;;;;;;;;;;6246780;23;20004;-66
2021/07/18 08:42:35;;;;;;;9.70;6.60;;;;;;;;;;6219249;23;20480;-65
2021/07/18 08:45:03;;;;;;;9.40;5.63;;;;;;;;;;6219233;23;20099;-68
2021/07/18 08:47:29;;;;;;;9.55;5.40;;;;;;;;;;6245991;23;20337;-66
2021/07/18 08:49:55;;;;;;;8.82;5.75;;;;;;;;;;6219206;23;20027;-71
2021/07/18 08:52:22;;;;;;;10.55;5.80;;;;;;;;;;6219109;23;20008;-72
2021/07/18 08:54:52;;;;;;;8.38;5.05;;;;;;;;;;6218687;23;20394;-71
2021/07/18 08:57:22;;;;;;;8.52;5.82;;;;;;;;;;6220176;23;20023;-71
2021/07/18 08:59:49;;;;;;;9.00;5.60;;;;;;;;;;6219321;23;20333;-71
2021/07/18 09:02:16;;;;;;;9.88;5.63;;;;;;;;;;6246385;23;20371;-71
2021/07/18 09:04:42;;;;;;;7.65;5.30;;;;;;;;;;6246080;23;20058;-70
2021/07/18 09:07:09;;;;;;;7.82;5.82;;;;;;;;;;6246065;23;20058;-71
2021/07/18 09:09:36;;;;;;;13.52;6.05;;;;;;;;;;6245974;23;20004;-71
2021/07/18 09:12:02;;;;;;;10.40;5.88;;;;;;;;;;6246931;23;20004;-71
2021/07/18 09:14:49;;;;;;;8.45;6.13;;;;;;;;;;6246283;23;20140;-71
2021/07/18 09:17:17;;;;;;;9.32;5.95;;;;;;;;;;6219274;23;20008;-71
2021/07/18 09:19:44;;;;;;;10.50;6.15;;;;;;;;;;6219107;23;19996;-71
2021/07/18 09:22:12;;;;;;;11.50;6.43;;;;;;;;;;6246287;23;20004;-71
2021/07/18 09:24:43;;;;;;;10.27;6.20;;;;;;;;;;6219124;23;20008;-71
2021/07/18 09:27:10;;;;;;;;;;;;;;;;;;6220630;23;20399;-71
2021/07/18 09:29:39;;;;;;;12.05;6.50;;;;;;;;;;6246350;23;20236;-71
2021/07/18 09:32:07;;;;;;;14.63;6.95;;;;;;;;;;6219096;23;20031;-70
2021/07/18 09:34:38;;;;;;;11.15;7.07;;;;;;;;;;6219786;23;20430;-70
2021/07/18 09:37:24;;;;;;;12.32;7.15;;;;;;;;;;6248842;23;20032;-71
2021/07/18 09:40:01;;;;;;;10.50;7.70;;;;;;;;;;6246050;23;20433;-70
2021/07/18 09:42:30;;;;;;;12.23;7.88;;;;;;;;;;6246185;23;20054;-70
2021/07/18 09:44:57;;;;;;;12.07;7.97;;;;;;;;;;6247134;23;20042;-70
2021/07/18 09:47:23;;;;;;;15.05;7.95;;;;;;;;;;6247970;23;20000;-73
2021/07/18 09:49:50;;;;;;;11.82;7.75;;;;;;;;;;6247603;23;20430;-73
2021/07/18 09:52:26;;;;;;;11.98;7.28;;;;;;;;;;6247940;23;20000;-70
2021/07/18 09:54:53;;;;;;;9.90;7.05;;;;;;;;;;6245997;23;20023;-73
2021/07/18 09:57:42;;;;;;;15.95;7.95;;;;;;;;;;6247628;23;20046;-72
2021/07/18 10:00:10;;;;;;;12.15;7.85;;;;;;;;;;6246121;23;20019;-70
2021/07/18 10:02:36;;;;;;;14.40;8.15;;;;;;;;;;6246984;23;20011;-70
2021/07/18 10:05:03;;;;;;;13.88;8.95;;;;;;;;;;6247466;23;20075;-70
2021/07/18 10:07:32;;;;;;;11.30;8.05;;;;;;;;;;6245902;23;20445;-70
2021/07/18 10:09:59;;;;;;;18.10;8.73;;;;;;;;;;6247503;23;20079;-72
2021/07/18 10:12:25;;;;;;;13.85;8.93;;;;;;;;;;6247453;23;20000;-72
2021/07/18 10:14:53;;;;;;;15.38;9.30;;;;;;;;;;6247324;23;20062;-72
2021/07/18 10:17:21;;;;;;;12.38;8.45;;;;;;;;;;6245829;23;20012;-72
2021/07/18 10:19:48;;;;;;;12.02;8.05;;;;;;;;;;6247282;23;20010;-72
2021/07/18 10:22:15;;;;;;;13.25;9.15;;;;;;;;;;6247296;23;20000;-72
2021/07/18 10:24:41;;;;;;;14.57;9.05;;;;;;;;;;6248008;23;20004;-72
2021/07/18 10:27:08;;;;;;;16.45;9.75;;;;;;;;;;6247318;23;19996;-72
2021/07/18 10:29:34;;;;;;;15.27;8.95;;;;;;;;;;6247640;23;20015;-72
2021/07/18 10:32:07;;;;;;;15.82;8.73;;;;;;;;;;6247203;23;20000;-73
2021/07/18 10:34:37;;;;;;;14.50;8.55;;;;;;;;;;6245332;23;20026;-72
2021/07/18 10:37:08;;;;;;;12.00;8.23;;;;;;;;;;6247167;23;20007;-72
2021/07/18 10:39:40;;;;;;;12.07;8.13;;;;;;;;;;6220351;23;20073;-72
2021/07/18 10:42:08;;;;;;;13.68;9.25;;;;;;;;;;6247735;23;20032;-72
2021/07/18 10:44:43;;;;;;;13.05;9.02;;;;;;;;;;6247140;23;20421;-72
2021/07/18 10:47:11;;;;;;;12.55;8.45;;;;;;;;;;6246709;23;20430;-73
2021/07/18 10:49:50;;;;;;;13.13;8.60;;;;;;;;;;6247104;23;20071;-72
2021/07/18 10:52:18;;;;;;;13.85;8.88;;;;;;;;;;6246995;23;20008;-71
2021/07/18 10:54:44;;;;;;;13.95;9.02;;;;;;;;;;6247847;23;20016;-72
2021/07/18 10:57:24;;;;;;;15.18;9.73;;;;;;;;;;6247918;23;20001;-72
2021/07/18 10:59:51;;;;;;;15.10;9.85;;;;;;;;;;6247709;23;20000;-72
2021/07/18 11:02:18;;;;;;;14.23;9.38;;;;;;;;;;6246548;23;20073;-71
2021/07/18 11:04:51;;;;;;;15.52;8.95;;;;;;;;;;6219798;23;20038;-69
2021/07/18 11:07:20;;;;;;;13.52;10.00;;;;;;;;;;6220077;23;20469;-71
2021/07/18 11:09:56;;;;;;;15.70;10.10;;;;;;;;;;6219985;23;20441;-70
2021/07/18 11:12:34;;;;;;;17.58;9.80;;;;;;;;;;6247206;23;20094;-70
2021/07/18 11:15:18;;;;;;;12.38;8.90;;;;;;;;;;6247364;23;20008;-71
2021/07/18 11:18:04;;;;;;;15.75;9.43;;;;;;;;;;6246735;23;20322;-73
2021/07/18 11:20:50;;;;;;;13.30;9.27;;;;;;;;;;6219914;23;20434;-70
2021/07/18 11:23:35;;;;;;;12.40;9.32;;;;;;;;;;6219849;23;20011;-70
2021/07/18 11:26:04;;;;;;;15.30;9.50;;;;;;;;;;6218657;23;20008;-67
2021/07/18 11:28:35;;;;;;;13.25;9.07;;;;;;;;;;6246509;23;20447;-68
2021/07/18 11:31:11;;;;;;;18.77;10.02;;;;;;;;;;6246464;23;20008;-67
2021/07/18 11:33:56;;;;;;;13.20;9.60;;;;;;;;;;6246871;23;20018;-67
2021/07/18 11:36:35;;;;;;;13.13;8.98;;;;;;;;;;6246311;23;20022;-65
2021/07/18 11:39:04;;;;;;;13.50;9.80;;;;;;;;;;6245648;23;20046;-65
2021/07/18 11:41:32;;;;;;;16.80;9.57;;;;;;;;;;6246129;23;20004;-65
2021/07/18 11:44:01;;;;;;;14.55;9.30;;;;;;;;;;6245912;23;20008;-71
2021/07/18 11:46:30;;;;;;;14.50;9.35;;;;;;;;;;6245986;23;20075;-74
2021/07/18 11:48:58;;;;;;;16.30;8.98;;;;;;;;;;6219268;23;20026;-74
2021/07/18 11:51:25;;;;;;;15.50;9.88;;;;;;;;;;6218430;23;20058;-72
2021/07/18 11:53:51;;;;;;;14.35;9.45;;;;;;;;;;6219140;23;20074;-70
2021/07/18 11:56:23;;;;;;;18.92;10.13;;;;;;;;;;6245546;23;20000;-72
2021/07/18 11:58:50;;;;;;;12.65;8.93;;;;;;;;;;6218988;23;20083;-74
2021/07/18 12:01:26;;;;;;;15.40;9.52;;;;;;;;;;6219208;23;20004;-67
2021/07/18 12:03:53;;;;;;;14.32;9.73;;;;;;;;;;6219003;23;20004;-72
2021/07/18 12:06:25;;;;;;;12.70;9.02;;;;;;;;;;6218887;23;20495;-72
2021/07/18 12:08:51;;;;;;;14.13;9.98;;;;;;;;;;6218721;23;20342;-68
2021/07/18 12:11:27;;;;;;;15.13;9.48;;;;;;;;;;6218909;23;20011;-71
2021/07/18 12:13:54;;;;;;;17.27;10.00;;;;;;;;;;6219319;23;20099;-74
2021/07/18 12:16:21;;;;;;;13.93;9.93;;;;;;;;;;6247000;23;20082;-75
2021/07/18 12:18:48;;;;;;;18.45;10.43;;;;;;;;;;6219019;23;20062;-72
2021/07/18 12:21:34;;;;;;;15.25;10.27;;;;;;;;;;6219053;23;20008;-71
2021/07/18 12:24:21;;;;;;;15.35;9.68;;;;;;;;;;6219026;23;20011;-74
2021/07/18 12:27:00;;;;;;;16.35;10.32;;;;;;;;;;6219242;23;20007;-74
2021/07/18 12:29:34;;;;;;;13.02;8.93;;;;;;;;;;6219391;23;20095;-69
2021/07/18 12:32:00;;;;;;;17.58;9.57;;;;;;;;;;6218776;23;20054;-67
2021/07/18 12:34:30;;;;;;;15.85;9.98;;;;;;;;;;6245860;23;20430;-69
2021/07/18 12:37:10;;;;;;;14.15;9.27;;;;;;;;;;6219326;23;20040;-69
2021/07/18 12:39:37;;;;;;;18.52;10.07;;;;;;;;;;6219464;23;20008;-69
2021/07/18 12:42:05;;;;;;;19.13;9.70;;;;;;;;;;6219031;23;20008;-68
2021/07/18 12:44:34;;;;;;;13.77;9.02;;;;;;;;;;6245966;23;20001;-67
2021/07/18 12:47:18;;;;;;;17.30;9.98;;;;;;;;;;6219249;23;20303;-67
2021/07/18 12:49:45;;;;;;;14.98;9.18;;;;;;;;;;6218348;23;20015;-70
2021/07/18 12:52:11;;;;;;;15.43;9.70;;;;;;;;;;6217946;23;20000;-71
2021/07/18 12:54:39;;;;;;;13.30;9.25;;;;;;;;;;6244898;23;20015;-71
2021/07/18 12:57:05;;;;;;;14.95;8.93;;;;;;;;;;6218709;23;20326;-68
2021/07/18 12:59:31;;;;;;;14.52;8.75;;;;;;;;;;6218463;23;20086;-72
2021/07/18 13:02:15;;;;;;;15.65;9.23;;;;;;;;;;6245523;23;20075;-68
2021/07/18 13:04:42;;;;;;;14.05;8.43;;;;;;;;;;6245803;23;20004;-69
2021/07/18 13:07:11;;;;;;;12.07;8.30;;;;;;;;;;6245804;23;20007;-67
2021/07/18 13:09:38;;;;;;;16.77;9.30;;;;;;;;;;6219850;23;20004;-67
2021/07/18 13:12:04;;;;;;;13.00;8.93;;;;;;;;;;6220785;23;20087;-71
2021/07/18 13:14:35;;;;;;;11.70;8.20;;;;;;;;;;6220555;23;20019;-68
2021/07/18 13:17:11;;;;;;;14.63;9.30;;;;;;;;;;6220676;23;20000;-68
2021/07/18 13:19:42;;;;;;;12.35;7.97;;;;;;;;;;6247531;23;20028;-68
2021/07/18 13:22:09;;;;;;;12.43;7.95;;;;;;;;;;6246645;23;20000;-69
2021/07/18 13:24:37;;;;;;;18.25;8.75;;;;;;;;;;6246725;23;20011;-69
2021/07/18 13:27:17;;;;;;;15.05;8.18;;;;;;;;;;6221017;23;20004;-69
2021/07/18 13:29:48;;;;;;;15.40;8.50;;;;;;;;;;6220402;23;20008;-69
2021/07/18 13:32:15;;;;;;;13.38;8.32;;;;;;;;;;6220989;23;20070;-70
2021/07/18 13:34:52;;;;;;;18.63;8.07;;;;;;;;;;6247766;23;20020;-69
2021/07/18 13:37:26;;;;;;;14.77;7.85;;;;;;;;;;6221021;23;20004;-70
2021/07/18 13:39:53;;;;;;;12.73;8.30;;;;;;;;;;6221016;23;20066;-70
2021/07/18 13:42:19;;;;;;;13.73;8.00;;;;;;;;;;6248405;23;20410;-70
2021/07/18 13:44:46;;;;;;;14.52;7.97;;;;;;;;;;6220837;23;20040;-70
2021/07/18 13:47:12;;;;;;;12.07;7.68;;;;;;;;;;6221188;23;20000;-68
2021/07/18 13:49:38;;;;;;;14.02;8.27;;;;;;;;;;6247944;23;20004;-72
2021/07/18 13:52:05;;;;;;;13.75;8.48;;;;;;;;;;6248306;23;20082;-71
2021/07/18 13:54:31;;;;;;;14.57;8.73;;;;;;;;;;6248033;23;20082;-69
2021/07/18 13:56:58;;;;;;;17.73;8.95;;;;;;;;;;6247823;23;20005;-69
2021/07/18 13:59:24;;;;;;;16.17;9.32;;;;;;;;;;6247256;23;20011;-70
2021/07/18 14:01:50;;;;;;;17.17;10.00;;;;;;;;;;6220606;23;20075;-69
2021/07/18 14:04:17;;;;;;;16.27;9.82;;;;;;;;;;6247832;23;20075;-69
2021/07/18 14:06:43;;;;;;;18.45;10.02;;;;;;;;;;6247382;23;20053;-69
2021/07/18 14:09:11;;;;;;;17.42;10.70;;;;;;;;;;6247774;23;20004;-69
2021/07/18 14:11:38;;;;;;;22.42;10.50;;;;;;;;;;6220599;23;20004;-71
2021/07/18 14:14:04;;;;;;;24.08;10.93;;;;;;;;;;6247297;23;20079;-72
2021/07/18 14:16:31;;;;;;;18.95;10.05;;;;;;;;;;6247998;23;20115;-70
2021/07/18 14:18:57;;;;;;;18.42;10.65;;;;;;;;;;6247427;23;20004;-71
2021/07/18 14:21:23;;;;;;;20.13;8.75;;;;;;;;;;6247024;23;20008;-69
2021/07/18 14:23:50;;;;;;;12.85;6.72;;;;;;;;;;6247184;23;20000;-70
2021/07/18 14:26:16;;;;;;;9.85;5.40;;;;;;;;;;6220466;23;20341;-70
2021/07/18 14:28:42;;;;;;;14.13;5.25;;;;;;;;;;6247327;23;20004;-73
2021/07/18 14:31:09;;;;;;;9.95;5.43;;;;;;;;;;6247145;23;20014;-69
2021/07/18 14:33:36;;;;;;;14.57;5.30;;;;;;;;;;6247494;23;20103;-70
2021/07/18 14:36:02;;;;;;;14.13;4.25;;;;;;;;;;6246768;23;20028;-69